sensor_id;sensor_type;location;lat;lon;timestamp;P1;durP1;ratioP1;P2;durP2;ratioP2
70138;SDS011;57507;43.056;0.150;2023-04-09T00:00:37;1.80;;;1.02;;
70138;SDS011;57507;43.056;0.150;2023-04-09T00:03:06;0.60;;;0.60;;
70138;SDS011;57507;43.056;0.150;2023-04-09T00:05:32;0.80;;;0.60;;
70138;SDS011;57507;43.056;0.150;2023-04-09T00:08:02;1.52;;;0.68;;
70138;SDS011;57507;43.056;0.150;2023-04-09T00:10:29;1.10;;;0.80;;
70138;SDS011;57507;43.056;0.150;2023-04-09T00:12:55;0.70;;;0.60;;
70138;SDS011;57507;43.056;0.150;2023-04-09T00:15:22;1.23;;;0.68;;
70138;SDS011;57507;43.056;0.150;2023-04-09T00:17:48;1.42;;;0.70;;
70138;SDS011;57507;43.056;0.150;2023-04-09T00:20:14;1.42;;;0.90;;
70138;SDS011;57507;43.056;0.150;2023-04-09T00:22:41;1.00;;;0.70;;
70138;SDS011;57507;43.056;0.150;2023-04-09T00:25:16;1.42;;;0.70;;
70138;SDS011;57507;43.056;0.150;2023-04-09T00:27:43;1.20;;;0.68;;
70138;SDS011;57507;43.056;0.150;2023-04-09T00:30:12;1.45;;;0.80;;
70138;SDS011;57507;43.056;0.150;2023-04-09T00:32:38;1.70;;;0.55;;
70138;SDS011;57507;43.056;0.150;2023-04-09T00:35:11;1.38;;;0.70;;
70138;SDS011;57507;43.056;0.150;2023-04-09T00:37:37;1.10;;;0.70;;
70138;SDS011;57507;43.056;0.150;2023-04-09T00:40:07;0.70;;;0.60;;
70138;SDS011;57507;43.056;0.150;2023-04-09T00:42:34;1.40;;;0.90;;
70138;SDS011;57507;43.056;0.150;2023-04-09T00:45:04;0.90;;;0.80;;
70138;SDS011;57507;43.056;0.150;2023-04-09T00:47:31;0.80;;;0.60;;
70138;SDS011;57507;43.056;0.150;2023-04-09T00:49:57;0.60;;;0.60;;
70138;SDS011;57507;43.056;0.150;2023-04-09T00:52:23;0.57;;;0.50;;
70138;SDS011;57507;43.056;0.150;2023-04-09T00:54:50;1.10;;;0.80;;
70138;SDS011;57507;43.056;0.150;2023-04-09T00:57:17;1.17;;;0.80;;
70138;SDS011;57507;43.056;0.150;2023-04-09T00:59:45;1.88;;;0.70;;
70138;SDS011;57507;43.056;0.150;2023-04-09T01:02:12;0.80;;;0.57;;
70138;SDS011;57507;43.056;0.150;2023-04-09T01:04:43;0.65;;;0.52;;
70138;SDS011;57507;43.056;0.150;2023-04-09T01:10:20;1.42;;;0.70;;
70138;SDS011;57507;43.056;0.150;2023-04-09T01:15:24;2.63;;;0.70;;
70138;SDS011;57507;43.056;0.150;2023-04-09T01:18:08;1.98;;;0.60;;
70138;SDS011;57507;43.056;0.150;2023-04-09T01:20:40;0.85;;;0.70;;
70138;SDS011;57507;43.056;0.150;2023-04-09T01:28:13;0.75;;;0.60;;
70138;SDS011;57507;43.056;0.150;2023-04-09T01:30:43;1.13;;;0.70;;
70138;SDS011;57507;43.056;0.150;2023-04-09T01:33:19;0.77;;;0.55;;
70138;SDS011;57507;43.056;0.150;2023-04-09T01:35:47;0.88;;;0.55;;
70138;SDS011;57507;43.056;0.150;2023-04-09T01:38:17;2.00;;;0.50;;
70138;SDS011;57507;43.056;0.150;2023-04-09T01:40:45;0.90;;;0.50;;
70138;SDS011;57507;43.056;0.150;2023-04-09T01:43:11;1.08;;;0.70;;
70138;SDS011;57507;43.056;0.150;2023-04-09T01:45:39;0.60;;;0.50;;
70138;SDS011;57507;43.056;0.150;2023-04-09T01:48:05;0.50;;;0.50;;
70138;SDS011;57507;43.056;0.150;2023-04-09T01:50:32;1.73;;;0.68;;
70138;SDS011;57507;43.056;0.150;2023-04-09T01:52:59;0.80;;;0.70;;
70138;SDS011;57507;43.056;0.150;2023-04-09T01:55:26;0.63;;;0.50;;
70138;SDS011;57507;43.056;0.150;2023-04-09T01:57:52;0.50;;;0.50;;
70138;SDS011;57507;43.056;0.150;2023-04-09T02:00:22;1.08;;;0.55;;
70138;SDS011;57507;43.056;0.150;2023-04-09T02:02:58;0.98;;;0.75;;
70138;SDS011;57507;43.056;0.150;2023-04-09T02:05:28;0.57;;;0.45;;
70138;SDS011;57507;43.056;0.150;2023-04-09T02:07:58;2.47;;;0.70;;
70138;SDS011;57507;43.056;0.150;2023-04-09T02:10:27;1.30;;;0.52;;
70138;SDS011;57507;43.056;0.150;2023-04-09T02:12:55;0.65;;;0.50;;
70138;SDS011;57507;43.056;0.150;2023-04-09T02:15:23;0.70;;;0.40;;
70138;SDS011;57507;43.056;0.150;2023-04-09T02:17:52;0.98;;;0.70;;
70138;SDS011;57507;43.056;0.150;2023-04-09T02:20:19;2.08;;;0.82;;
70138;SDS011;57507;43.056;0.150;2023-04-09T02:22:49;1.38;;;0.43;;
70138;SDS011;57507;43.056;0.150;2023-04-09T02:25:18;1.58;;;0.55;;
70138;SDS011;57507;43.056;0.150;2023-04-09T02:28:05;1.17;;;0.57;;
70138;SDS011;57507;43.056;0.150;2023-04-09T02:30:42;1.10;;;0.60;;
70138;SDS011;57507;43.056;0.150;2023-04-09T02:33:08;1.00;;;0.60;;
70138;SDS011;57507;43.056;0.150;2023-04-09T02:35:34;0.60;;;0.40;;
70138;SDS011;57507;43.056;0.150;2023-04-09T02:38:03;1.33;;;0.90;;
70138;SDS011;57507;43.056;0.150;2023-04-09T02:40:30;1.27;;;0.60;;
70138;SDS011;57507;43.056;0.150;2023-04-09T02:42:58;0.40;;;0.40;;
70138;SDS011;57507;43.056;0.150;2023-04-09T02:45:25;0.80;;;0.50;;
70138;SDS011;57507;43.056;0.150;2023-04-09T02:47:51;1.17;;;0.60;;
70138;SDS011;57507;43.056;0.150;2023-04-09T02:50:18;1.45;;;0.88;;
70138;SDS011;57507;43.056;0.150;2023-04-09T02:52:45;1.33;;;0.45;;
70138;SDS011;57507;43.056;0.150;2023-04-09T02:55:11;0.75;;;0.60;;
70138;SDS011;57507;43.056;0.150;2023-04-09T02:57:40;1.17;;;0.50;;
70138;SDS011;57507;43.056;0.150;2023-04-09T03:00:10;0.50;;;0.47;;
70138;SDS011;57507;43.056;0.150;2023-04-09T03:02:36;0.75;;;0.50;;
70138;SDS011;57507;43.056;0.150;2023-04-09T03:05:03;0.73;;;0.50;;
70138;SDS011;57507;43.056;0.150;2023-04-09T03:07:29;0.70;;;0.50;;
70138;SDS011;57507;43.056;0.150;2023-04-09T03:09:58;1.15;;;0.70;;
70138;SDS011;57507;43.056;0.150;2023-04-09T03:12:27;1.77;;;0.50;;
70138;SDS011;57507;43.056;0.150;2023-04-09T03:14:57;0.60;;;0.60;;
70138;SDS011;57507;43.056;0.150;2023-04-09T03:17:23;0.57;;;0.40;;
70138;SDS011;57507;43.056;0.150;2023-04-09T03:19:53;1.20;;;0.65;;
70138;SDS011;57507;43.056;0.150;2023-04-09T03:22:19;0.65;;;0.60;;
70138;SDS011;57507;43.056;0.150;2023-04-09T03:24:46;0.95;;;0.68;;
70138;SDS011;57507;43.056;0.150;2023-04-09T03:27:15;3.10;;;0.75;;
70138;SDS011;57507;43.056;0.150;2023-04-09T03:29:47;0.77;;;0.50;;
70138;SDS011;57507;43.056;0.150;2023-04-09T03:32:14;1.70;;;0.65;;
70138;SDS011;57507;43.056;0.150;2023-04-09T03:34:47;0.50;;;0.47;;
70138;SDS011;57507;43.056;0.150;2023-04-09T03:37:14;1.02;;;0.60;;
70138;SDS011;57507;43.056;0.150;2023-04-09T03:39:40;1.23;;;0.70;;
70138;SDS011;57507;43.056;0.150;2023-04-09T03:42:07;1.67;;;0.77;;
70138;SDS011;57507;43.056;0.150;2023-04-09T03:44:33;0.95;;;0.60;;
70138;SDS011;57507;43.056;0.150;2023-04-09T03:46:59;1.27;;;0.70;;
70138;SDS011;57507;43.056;0.150;2023-04-09T03:49:26;1.13;;;0.60;;
70138;SDS011;57507;43.056;0.150;2023-04-09T03:51:52;0.68;;;0.50;;
70138;SDS011;57507;43.056;0.150;2023-04-09T03:54:21;1.77;;;0.75;;
70138;SDS011;57507;43.056;0.150;2023-04-09T03:56:48;0.82;;;0.57;;
70138;SDS011;57507;43.056;0.150;2023-04-09T03:59:14;2.55;;;0.70;;
70138;SDS011;57507;43.056;0.150;2023-04-09T04:01:46;1.27;;;0.60;;
70138;SDS011;57507;43.056;0.150;2023-04-09T04:04:12;1.13;;;0.57;;
70138;SDS011;57507;43.056;0.150;2023-04-09T04:06:44;0.95;;;0.75;;
70138;SDS011;57507;43.056;0.150;2023-04-09T04:09:10;0.77;;;0.60;;
70138;SDS011;57507;43.056;0.150;2023-04-09T04:11:37;0.40;;;0.40;;
70138;SDS011;57507;43.056;0.150;2023-04-09T04:14:03;0.63;;;0.50;;
70138;SDS011;57507;43.056;0.150;2023-04-09T04:16:32;0.90;;;0.50;;
70138;SDS011;57507;43.056;0.150;2023-04-09T04:18:59;0.60;;;0.40;;
70138;SDS011;57507;43.056;0.150;2023-04-09T04:21:25;0.60;;;0.50;;
70138;SDS011;57507;43.056;0.150;2023-04-09T04:23:52;1.08;;;0.80;;
70138;SDS011;57507;43.056;0.150;2023-04-09T04:26:20;1.00;;;0.60;;
70138;SDS011;57507;43.056;0.150;2023-04-09T04:28:49;0.50;;;0.50;;
70138;SDS011;57507;43.056;0.150;2023-04-09T04:31:16;2.05;;;0.70;;
70138;SDS011;57507;43.056;0.150;2023-04-09T04:33:42;1.00;;;0.60;;
70138;SDS011;57507;43.056;0.150;2023-04-09T04:36:12;1.25;;;0.85;;
70138;SDS011;57507;43.056;0.150;2023-04-09T04:38:41;1.17;;;0.75;;
70138;SDS011;57507;43.056;0.150;2023-04-09T04:41:10;0.95;;;0.60;;
70138;SDS011;57507;43.056;0.150;2023-04-09T04:43:36;1.20;;;0.60;;
70138;SDS011;57507;43.056;0.150;2023-04-09T04:46:05;0.70;;;0.45;;
70138;SDS011;57507;43.056;0.150;2023-04-09T04:48:34;1.35;;;0.57;;
70138;SDS011;57507;43.056;0.150;2023-04-09T04:51:01;1.13;;;0.70;;
70138;SDS011;57507;43.056;0.150;2023-04-09T04:53:27;1.05;;;0.70;;
70138;SDS011;57507;43.056;0.150;2023-04-09T04:55:53;1.25;;;0.63;;
70138;SDS011;57507;43.056;0.150;2023-04-09T04:58:20;0.73;;;0.60;;
70138;SDS011;57507;43.056;0.150;2023-04-09T05:00:49;0.85;;;0.40;;
70138;SDS011;57507;43.056;0.150;2023-04-09T05:03:16;0.82;;;0.68;;
70138;SDS011;57507;43.056;0.150;2023-04-09T05:05:44;0.60;;;0.60;;
70138;SDS011;57507;43.056;0.150;2023-04-09T05:08:11;1.27;;;0.70;;
70138;SDS011;57507;43.056;0.150;2023-04-09T05:13:29;0.80;;;0.55;;
70138;SDS011;57507;43.056;0.150;2023-04-09T05:15:59;1.33;;;0.55;;
70138;SDS011;57507;43.056;0.150;2023-04-09T05:18:27;0.70;;;0.60;;
70138;SDS011;57507;43.056;0.150;2023-04-09T05:20:54;0.40;;;0.40;;
70138;SDS011;57507;43.056;0.150;2023-04-09T05:23:24;1.10;;;0.50;;
70138;SDS011;57507;43.056;0.150;2023-04-09T05:25:53;0.60;;;0.50;;
70138;SDS011;57507;43.056;0.150;2023-04-09T05:28:19;0.57;;;0.50;;
70138;SDS011;57507;43.056;0.150;2023-04-09T05:30:48;0.70;;;0.50;;
70138;SDS011;57507;43.056;0.150;2023-04-09T05:33:14;0.47;;;0.47;;
70138;SDS011;57507;43.056;0.150;2023-04-09T05:35:41;0.82;;;0.40;;
70138;SDS011;57507;43.056;0.150;2023-04-09T05:38:07;0.70;;;0.40;;
70138;SDS011;57507;43.056;0.150;2023-04-09T05:40:33;3.10;;;0.50;;
70138;SDS011;57507;43.056;0.150;2023-04-09T05:43:00;0.50;;;0.50;;
70138;SDS011;57507;43.056;0.150;2023-04-09T05:45:33;1.25;;;0.50;;
70138;SDS011;57507;43.056;0.150;2023-04-09T05:48:00;1.83;;;0.60;;
70138;SDS011;57507;43.056;0.150;2023-04-09T05:50:26;1.80;;;0.40;;
70138;SDS011;57507;43.056;0.150;2023-04-09T05:52:53;1.13;;;0.50;;
70138;SDS011;57507;43.056;0.150;2023-04-09T05:55:21;0.63;;;0.50;;
70138;SDS011;57507;43.056;0.150;2023-04-09T05:57:48;0.50;;;0.50;;
70138;SDS011;57507;43.056;0.150;2023-04-09T06:00:17;0.60;;;0.50;;
70138;SDS011;57507;43.056;0.150;2023-04-09T06:02:43;0.98;;;0.63;;
70138;SDS011;57507;43.056;0.150;2023-04-09T06:05:10;0.95;;;0.50;;
70138;SDS011;57507;43.056;0.150;2023-04-09T06:07:44;1.55;;;0.50;;
70138;SDS011;57507;43.056;0.150;2023-04-09T06:12:39;1.08;;;0.50;;
70138;SDS011;57507;43.056;0.150;2023-04-09T06:15:06;1.55;;;0.57;;
70138;SDS011;57507;43.056;0.150;2023-04-09T06:17:35;0.70;;;0.50;;
70138;SDS011;57507;43.056;0.150;2023-04-09T06:20:02;0.57;;;0.50;;
70138;SDS011;57507;43.056;0.150;2023-04-09T06:22:31;0.82;;;0.60;;
70138;SDS011;57507;43.056;0.150;2023-04-09T06:25:03;0.80;;;0.60;;
70138;SDS011;57507;43.056;0.150;2023-04-09T06:27:30;0.70;;;0.70;;
70138;SDS011;57507;43.056;0.150;2023-04-09T06:29:56;0.70;;;0.47;;
70138;SDS011;57507;43.056;0.150;2023-04-09T06:32:22;0.85;;;0.57;;
70138;SDS011;57507;43.056;0.150;2023-04-09T06:34:48;0.57;;;0.47;;
70138;SDS011;57507;43.056;0.150;2023-04-09T06:37:20;1.63;;;0.60;;
70138;SDS011;57507;43.056;0.150;2023-04-09T06:39:49;0.82;;;0.40;;
70138;SDS011;57507;43.056;0.150;2023-04-09T06:42:16;2.63;;;0.70;;
70138;SDS011;57507;43.056;0.150;2023-04-09T06:44:42;1.13;;;0.68;;
70138;SDS011;57507;43.056;0.150;2023-04-09T06:47:09;0.80;;;0.60;;
70138;SDS011;57507;43.056;0.150;2023-04-09T06:49:35;0.43;;;0.40;;
70138;SDS011;57507;43.056;0.150;2023-04-09T06:52:02;0.85;;;0.60;;
70138;SDS011;57507;43.056;0.150;2023-04-09T06:54:28;0.50;;;0.50;;
70138;SDS011;57507;43.056;0.150;2023-04-09T06:56:54;0.63;;;0.47;;
70138;SDS011;57507;43.056;0.150;2023-04-09T06:59:21;0.60;;;0.60;;
70138;SDS011;57507;43.056;0.150;2023-04-09T07:01:58;1.08;;;0.70;;
70138;SDS011;57507;43.056;0.150;2023-04-09T07:04:25;0.80;;;0.50;;
70138;SDS011;57507;43.056;0.150;2023-04-09T07:06:51;1.75;;;0.68;;
70138;SDS011;57507;43.056;0.150;2023-04-09T07:09:19;1.13;;;0.60;;
70138;SDS011;57507;43.056;0.150;2023-04-09T07:11:48;1.08;;;0.90;;
70138;SDS011;57507;43.056;0.150;2023-04-09T07:14:14;2.17;;;1.15;;
70138;SDS011;57507;43.056;0.150;2023-04-09T07:16:41;3.80;;;1.75;;
70138;SDS011;57507;43.056;0.150;2023-04-09T07:19:10;4.00;;;2.28;;
70138;SDS011;57507;43.056;0.150;2023-04-09T07:21:36;4.28;;;2.10;;
70138;SDS011;57507;43.056;0.150;2023-04-09T07:24:06;2.55;;;1.35;;
70138;SDS011;57507;43.056;0.150;2023-04-09T07:26:32;1.90;;;1.40;;
70138;SDS011;57507;43.056;0.150;2023-04-09T07:28:59;1.67;;;1.10;;
70138;SDS011;57507;43.056;0.150;2023-04-09T07:31:26;2.15;;;1.33;;
70138;SDS011;57507;43.056;0.150;2023-04-09T07:33:52;1.25;;;0.80;;
70138;SDS011;57507;43.056;0.150;2023-04-09T07:36:18;1.08;;;0.88;;
70138;SDS011;57507;43.056;0.150;2023-04-09T07:38:47;1.27;;;0.77;;
70138;SDS011;57507;43.056;0.150;2023-04-09T07:41:16;0.90;;;0.57;;
70138;SDS011;57507;43.056;0.150;2023-04-09T07:43:42;1.63;;;0.75;;
70138;SDS011;57507;43.056;0.150;2023-04-09T07:46:08;1.02;;;0.82;;
70138;SDS011;57507;43.056;0.150;2023-04-09T07:48:34;1.60;;;1.00;;
70138;SDS011;57507;43.056;0.150;2023-04-09T07:51:00;1.35;;;0.68;;
70138;SDS011;57507;43.056;0.150;2023-04-09T07:53:26;3.47;;;1.10;;
70138;SDS011;57507;43.056;0.150;2023-04-09T07:55:52;1.20;;;0.77;;
70138;SDS011;57507;43.056;0.150;2023-04-09T07:58:18;1.52;;;1.00;;
70138;SDS011;57507;43.056;0.150;2023-04-09T08:00:44;1.42;;;0.80;;
70138;SDS011;57507;43.056;0.150;2023-04-09T08:03:10;1.98;;;0.90;;
70138;SDS011;57507;43.056;0.150;2023-04-09T08:05:37;2.17;;;0.80;;
70138;SDS011;57507;43.056;0.150;2023-04-09T08:08:04;0.85;;;0.60;;
70138;SDS011;57507;43.056;0.150;2023-04-09T08:10:30;1.20;;;0.60;;
70138;SDS011;57507;43.056;0.150;2023-04-09T08:12:56;0.43;;;0.43;;
70138;SDS011;57507;43.056;0.150;2023-04-09T08:15:22;0.93;;;0.40;;
70138;SDS011;57507;43.056;0.150;2023-04-09T08:17:48;0.80;;;0.68;;
70138;SDS011;57507;43.056;0.150;2023-04-09T08:20:14;1.17;;;0.50;;
70138;SDS011;57507;43.056;0.150;2023-04-09T08:22:41;1.15;;;0.70;;
70138;SDS011;57507;43.056;0.150;2023-04-09T08:26:27;0.88;;;0.45;;
70138;SDS011;57507;43.056;0.150;2023-04-09T08:28:23;2.00;;;0.70;;
70138;SDS011;57507;43.056;0.150;2023-04-09T08:30:52;1.13;;;0.40;;
70138;SDS011;57507;43.056;0.150;2023-04-09T08:33:19;0.93;;;0.55;;
70138;SDS011;57507;43.056;0.150;2023-04-09T08:35:45;2.22;;;0.60;;
70138;SDS011;57507;43.056;0.150;2023-04-09T08:38:11;0.82;;;0.47;;
70138;SDS011;57507;43.056;0.150;2023-04-09T08:40:39;0.98;;;0.30;;
70138;SDS011;57507;43.056;0.150;2023-04-09T08:43:05;0.43;;;0.30;;
70138;SDS011;57507;43.056;0.150;2023-04-09T08:45:33;1.67;;;0.60;;
70138;SDS011;57507;43.056;0.150;2023-04-09T08:47:59;0.65;;;0.50;;
70138;SDS011;57507;43.056;0.150;2023-04-09T08:50:30;0.43;;;0.30;;
70138;SDS011;57507;43.056;0.150;2023-04-09T08:52:57;2.75;;;0.45;;
70138;SDS011;57507;43.056;0.150;2023-04-09T08:55:27;0.57;;;0.40;;
70138;SDS011;57507;43.056;0.150;2023-04-09T08:57:53;1.75;;;0.40;;
70138;SDS011;57507;43.056;0.150;2023-04-09T09:00:20;0.40;;;0.40;;
70138;SDS011;57507;43.056;0.150;2023-04-09T09:03:06;1.20;;;0.30;;
70138;SDS011;57507;43.056;0.150;2023-04-09T09:05:39;0.68;;;0.40;;
70138;SDS011;57507;43.056;0.150;2023-04-09T09:08:08;0.90;;;0.30;;
70138;SDS011;57507;43.056;0.150;2023-04-09T09:15:43;0.55;;;0.40;;
70138;SDS011;57507;43.056;0.150;2023-04-09T09:18:11;0.47;;;0.40;;
70138;SDS011;57507;43.056;0.150;2023-04-09T09:20:37;0.43;;;0.30;;
70138;SDS011;57507;43.056;0.150;2023-04-09T09:23:03;1.05;;;0.40;;
70138;SDS011;57507;43.056;0.150;2023-04-09T09:25:31;0.55;;;0.30;;
70138;SDS011;57507;43.056;0.150;2023-04-09T09:28:09;0.30;;;0.27;;
70138;SDS011;57507;43.056;0.150;2023-04-09T09:33:05;0.45;;;0.32;;
70138;SDS011;57507;43.056;0.150;2023-04-09T09:35:48;1.00;;;0.50;;
70138;SDS011;57507;43.056;0.150;2023-04-09T09:38:14;0.60;;;0.35;;
70138;SDS011;57507;43.056;0.150;2023-04-09T09:40:41;0.77;;;0.40;;
70138;SDS011;57507;43.056;0.150;2023-04-09T09:43:07;0.63;;;0.20;;
70138;SDS011;57507;43.056;0.150;2023-04-09T09:45:33;0.20;;;0.20;;
70138;SDS011;57507;43.056;0.150;2023-04-09T09:48:01;0.32;;;0.28;;
70138;SDS011;57507;43.056;0.150;2023-04-09T09:50:28;0.38;;;0.30;;
70138;SDS011;57507;43.056;0.150;2023-04-09T09:53:03;0.20;;;0.20;;
70138;SDS011;57507;43.056;0.150;2023-04-09T09:55:30;0.85;;;0.73;;
70138;SDS011;57507;43.056;0.150;2023-04-09T09:57:57;1.20;;;0.28;;
70138;SDS011;57507;43.056;0.150;2023-04-09T10:00:26;0.38;;;0.30;;
70138;SDS011;57507;43.056;0.150;2023-04-09T10:03:06;0.32;;;0.20;;
70138;SDS011;57507;43.056;0.150;2023-04-09T10:05:33;0.45;;;0.30;;
70138;SDS011;57507;43.056;0.150;2023-04-09T10:08:00;1.02;;;0.47;;
70138;SDS011;57507;43.056;0.150;2023-04-09T10:10:28;0.32;;;0.30;;
70138;SDS011;57507;43.056;0.150;2023-04-09T10:12:55;0.30;;;0.30;;
70138;SDS011;57507;43.056;0.150;2023-04-09T10:15:22;0.30;;;0.25;;
70138;SDS011;57507;43.056;0.150;2023-04-09T10:17:48;0.95;;;0.30;;
70138;SDS011;57507;43.056;0.150;2023-04-09T10:20:15;0.60;;;0.25;;
70138;SDS011;57507;43.056;0.150;2023-04-09T10:22:43;0.30;;;0.30;;
70138;SDS011;57507;43.056;0.150;2023-04-09T10:25:11;0.40;;;0.20;;
70138;SDS011;57507;43.056;0.150;2023-04-09T10:27:37;0.43;;;0.30;;
70138;SDS011;57507;43.056;0.150;2023-04-09T10:30:08;0.60;;;0.20;;
70138;SDS011;57507;43.056;0.150;2023-04-09T10:32:34;0.30;;;0.13;;
70138;SDS011;57507;43.056;0.150;2023-04-09T10:35:02;0.28;;;0.22;;
70138;SDS011;57507;43.056;0.150;2023-04-09T10:37:28;1.55;;;0.40;;
70138;SDS011;57507;43.056;0.150;2023-04-09T10:39:54;0.90;;;0.20;;
70138;SDS011;57507;43.056;0.150;2023-04-09T10:45:10;0.10;;;0.10;;
70138;SDS011;57507;43.056;0.150;2023-04-09T10:47:37;0.30;;;0.30;;
70138;SDS011;57507;43.056;0.150;2023-04-09T10:50:20;0.25;;;0.22;;
70138;SDS011;57507;43.056;0.150;2023-04-09T10:52:50;0.30;;;0.30;;
70138;SDS011;57507;43.056;0.150;2023-04-09T10:55:33;1.77;;;0.40;;
70138;SDS011;57507;43.056;0.150;2023-04-09T10:58:03;0.30;;;0.30;;
70138;SDS011;57507;43.056;0.150;2023-04-09T11:00:29;0.60;;;0.30;;
70138;SDS011;57507;43.056;0.150;2023-04-09T11:10:30;0.38;;;0.22;;
70138;SDS011;57507;43.056;0.150;2023-04-09T11:12:56;0.35;;;0.22;;
70138;SDS011;57507;43.056;0.150;2023-04-09T11:15:22;0.22;;;0.20;;
70138;SDS011;57507;43.056;0.150;2023-04-09T11:17:48;0.73;;;0.25;;
70138;SDS011;57507;43.056;0.150;2023-04-09T11:20:15;1.10;;;0.30;;
70138;SDS011;57507;43.056;0.150;2023-04-09T11:22:41;0.30;;;0.20;;
70138;SDS011;57507;43.056;0.150;2023-04-09T11:25:08;0.50;;;0.20;;
70138;SDS011;57507;43.056;0.150;2023-04-09T11:27:37;2.10;;;0.20;;
70138;SDS011;57507;43.056;0.150;2023-04-09T11:30:03;0.50;;;0.35;;
70138;SDS011;57507;43.056;0.150;2023-04-09T11:32:30;0.30;;;0.30;;
70138;SDS011;57507;43.056;0.150;2023-04-09T11:34:56;1.38;;;0.30;;
70138;SDS011;57507;43.056;0.150;2023-04-09T11:37:22;0.65;;;0.50;;
70138;SDS011;57507;43.056;0.150;2023-04-09T11:39:48;0.40;;;0.40;;
70138;SDS011;57507;43.056;0.150;2023-04-09T11:42:18;0.20;;;0.20;;
70138;SDS011;57507;43.056;0.150;2023-04-09T11:44:46;0.20;;;0.20;;
70138;SDS011;57507;43.056;0.150;2023-04-09T11:47:12;1.25;;;0.40;;
70138;SDS011;57507;43.056;0.150;2023-04-09T11:49:38;1.00;;;0.20;;
70138;SDS011;57507;43.056;0.150;2023-04-09T11:52:05;0.40;;;0.40;;
70138;SDS011;57507;43.056;0.150;2023-04-09T11:54:34;0.85;;;0.20;;
70138;SDS011;57507;43.056;0.150;2023-04-09T11:57:02;0.52;;;0.22;;
70138;SDS011;57507;43.056;0.150;2023-04-09T11:59:28;1.40;;;0.28;;
70138;SDS011;57507;43.056;0.150;2023-04-09T12:01:58;0.75;;;0.22;;
70138;SDS011;57507;43.056;0.150;2023-04-09T12:04:24;0.43;;;0.30;;
70138;SDS011;57507;43.056;0.150;2023-04-09T12:06:50;0.47;;;0.47;;
70138;SDS011;57507;43.056;0.150;2023-04-09T12:09:16;0.80;;;0.30;;
70138;SDS011;57507;43.056;0.150;2023-04-09T12:11:42;0.65;;;0.60;;
70138;SDS011;57507;43.056;0.150;2023-04-09T12:14:12;0.40;;;0.40;;
70138;SDS011;57507;43.056;0.150;2023-04-09T12:16:40;1.73;;;0.40;;
70138;SDS011;57507;43.056;0.150;2023-04-09T12:19:08;0.40;;;0.20;;
70138;SDS011;57507;43.056;0.150;2023-04-09T12:24:12;0.50;;;0.30;;
70138;SDS011;57507;43.056;0.150;2023-04-09T12:26:38;0.47;;;0.30;;
70138;SDS011;57507;43.056;0.150;2023-04-09T12:29:04;0.47;;;0.30;;
70138;SDS011;57507;43.056;0.150;2023-04-09T12:31:31;0.60;;;0.40;;
70138;SDS011;57507;43.056;0.150;2023-04-09T12:33:57;1.05;;;0.40;;
70138;SDS011;57507;43.056;0.150;2023-04-09T12:36:23;0.98;;;0.38;;
70138;SDS011;57507;43.056;0.150;2023-04-09T12:38:49;0.45;;;0.40;;
70138;SDS011;57507;43.056;0.150;2023-04-09T12:41:15;1.63;;;0.40;;
70138;SDS011;57507;43.056;0.150;2023-04-09T12:43:41;2.20;;;0.45;;
70138;SDS011;57507;43.056;0.150;2023-04-09T12:46:08;0.77;;;0.40;;
70138;SDS011;57507;43.056;0.150;2023-04-09T12:48:34;1.20;;;0.50;;
70138;SDS011;57507;43.056;0.150;2023-04-09T12:51:00;1.17;;;0.35;;
70138;SDS011;57507;43.056;0.150;2023-04-09T12:53:26;3.60;;;0.47;;
70138;SDS011;57507;43.056;0.150;2023-04-09T12:55:52;0.70;;;0.57;;
70138;SDS011;57507;43.056;0.150;2023-04-09T12:58:18;0.80;;;0.52;;
70138;SDS011;57507;43.056;0.150;2023-04-09T13:00:44;0.80;;;0.50;;
70138;SDS011;57507;43.056;0.150;2023-04-09T13:03:10;1.40;;;0.70;;
70138;SDS011;57507;43.056;0.150;2023-04-09T13:05:37;1.17;;;0.40;;
70138;SDS011;57507;43.056;0.150;2023-04-09T13:08:03;0.40;;;0.30;;
70138;SDS011;57507;43.056;0.150;2023-04-09T13:10:29;0.57;;;0.38;;
70138;SDS011;57507;43.056;0.150;2023-04-09T13:12:55;0.57;;;0.30;;
70138;SDS011;57507;43.056;0.150;2023-04-09T13:15:21;0.55;;;0.47;;
70138;SDS011;57507;43.056;0.150;2023-04-09T13:17:47;0.88;;;0.30;;
70138;SDS011;57507;43.056;0.150;2023-04-09T13:20:14;0.30;;;0.30;;
70138;SDS011;57507;43.056;0.150;2023-04-09T13:22:40;0.30;;;0.20;;
70138;SDS011;57507;43.056;0.150;2023-04-09T13:25:06;0.47;;;0.40;;
70138;SDS011;57507;43.056;0.150;2023-04-09T13:27:32;1.77;;;0.45;;
70138;SDS011;57507;43.056;0.150;2023-04-09T13:29:58;0.40;;;0.30;;
70138;SDS011;57507;43.056;0.150;2023-04-09T13:32:24;1.55;;;0.40;;
70138;SDS011;57507;43.056;0.150;2023-04-09T13:34:51;0.70;;;0.40;;
70138;SDS011;57507;43.056;0.150;2023-04-09T13:37:19;0.60;;;0.35;;
70138;SDS011;57507;43.056;0.150;2023-04-09T13:39:45;3.10;;;0.40;;
70138;SDS011;57507;43.056;0.150;2023-04-09T13:42:11;0.40;;;0.32;;
70138;SDS011;57507;43.056;0.150;2023-04-09T13:44:37;1.05;;;0.30;;
70138;SDS011;57507;43.056;0.150;2023-04-09T13:47:06;0.65;;;0.38;;
70138;SDS011;57507;43.056;0.150;2023-04-09T13:49:33;1.23;;;0.47;;
70138;SDS011;57507;43.056;0.150;2023-04-09T13:51:59;0.90;;;0.40;;
70138;SDS011;57507;43.056;0.150;2023-04-09T13:54:25;1.58;;;0.30;;
70138;SDS011;57507;43.056;0.150;2023-04-09T13:56:51;0.90;;;0.50;;
70138;SDS011;57507;43.056;0.150;2023-04-09T13:59:17;0.68;;;0.30;;
70138;SDS011;57507;43.056;0.150;2023-04-09T14:01:43;0.57;;;0.30;;
70138;SDS011;57507;43.056;0.150;2023-04-09T14:04:09;0.63;;;0.30;;
70138;SDS011;57507;43.056;0.150;2023-04-09T14:06:35;0.40;;;0.20;;
70138;SDS011;57507;43.056;0.150;2023-04-09T14:09:01;0.88;;;0.40;;
70138;SDS011;57507;43.056;0.150;2023-04-09T14:11:27;0.43;;;0.40;;
70138;SDS011;57507;43.056;0.150;2023-04-09T14:13:54;0.43;;;0.30;;
70138;SDS011;57507;43.056;0.150;2023-04-09T14:16:20;0.50;;;0.50;;
70138;SDS011;57507;43.056;0.150;2023-04-09T14:18:46;0.60;;;0.35;;
70138;SDS011;57507;43.056;0.150;2023-04-09T14:21:12;0.35;;;0.25;;
70138;SDS011;57507;43.056;0.150;2023-04-09T14:23:38;0.52;;;0.38;;
70138;SDS011;57507;43.056;0.150;2023-04-09T14:26:04;0.98;;;0.40;;
70138;SDS011;57507;43.056;0.150;2023-04-09T14:28:31;0.50;;;0.30;;
70138;SDS011;57507;43.056;0.150;2023-04-09T14:30:57;0.40;;;0.30;;
70138;SDS011;57507;43.056;0.150;2023-04-09T14:33:24;0.85;;;0.40;;
70138;SDS011;57507;43.056;0.150;2023-04-09T14:35:50;0.88;;;0.43;;
70138;SDS011;57507;43.056;0.150;2023-04-09T14:38:16;0.30;;;0.30;;
70138;SDS011;57507;43.056;0.150;2023-04-09T14:40:43;0.30;;;0.30;;
70138;SDS011;57507;43.056;0.150;2023-04-09T14:43:09;0.55;;;0.22;;
70138;SDS011;57507;43.056;0.150;2023-04-09T14:45:35;0.75;;;0.20;;
70138;SDS011;57507;43.056;0.150;2023-04-09T14:48:01;0.50;;;0.40;;
70138;SDS011;57507;43.056;0.150;2023-04-09T14:50:29;0.25;;;0.20;;
70138;SDS011;57507;43.056;0.150;2023-04-09T14:52:56;0.40;;;0.30;;
70138;SDS011;57507;43.056;0.150;2023-04-09T14:55:22;0.77;;;0.40;;
70138;SDS011;57507;43.056;0.150;2023-04-09T14:57:49;0.43;;;0.30;;
70138;SDS011;57507;43.056;0.150;2023-04-09T15:00:16;0.30;;;0.20;;
70138;SDS011;57507;43.056;0.150;2023-04-09T15:02:42;1.02;;;0.30;;
70138;SDS011;57507;43.056;0.150;2023-04-09T15:05:08;0.80;;;0.40;;
70138;SDS011;57507;43.056;0.150;2023-04-09T15:07:34;0.57;;;0.30;;
70138;SDS011;57507;43.056;0.150;2023-04-09T15:10:00;0.45;;;0.30;;
70138;SDS011;57507;43.056;0.150;2023-04-09T15:12:27;0.70;;;0.40;;
70138;SDS011;57507;43.056;0.150;2023-04-09T15:14:54;0.75;;;0.38;;
70138;SDS011;57507;43.056;0.150;2023-04-09T15:17:21;0.50;;;0.30;;
70138;SDS011;57507;43.056;0.150;2023-04-09T15:19:47;0.90;;;0.30;;
70138;SDS011;57507;43.056;0.150;2023-04-09T15:22:13;3.53;;;0.38;;
70138;SDS011;57507;43.056;0.150;2023-04-09T15:24:39;0.32;;;0.30;;
70138;SDS011;57507;43.056;0.150;2023-04-09T15:27:05;0.30;;;0.30;;